createdAt,value
2022-09-18T00:00:14.899Z,43.67
2022-09-18T00:01:14.930Z,43.99
2022-09-18T00:02:14.933Z,41.57
2022-09-18T00:03:14.918Z,43.02
2022-09-18T00:04:14.847Z,43.67
2022-09-18T00:05:14.850Z,43.51
2022-09-18T00:06:14.841Z,42.86
2022-09-18T00:07:14.809Z,44.31
2022-09-18T00:08:14.790Z,43.67
2022-09-18T00:09:14.778Z,44.47
2022-09-18T00:10:14.770Z,43.34
2022-09-18T00:11:14.778Z,42.06
2022-09-18T00:12:14.731Z,42.70
2022-09-18T00:13:14.722Z,43.51
2022-09-18T00:14:14.720Z,46.08
2022-09-18T00:15:14.721Z,43.67
2022-09-18T00:16:14.812Z,43.02
2022-09-18T00:17:14.693Z,43.02
2022-09-18T00:18:14.652Z,43.18
2022-09-18T00:19:14.643Z,43.02
2022-09-18T00:20:14.654Z,42.70
2022-09-18T00:21:14.614Z,43.51
2022-09-18T00:22:14.610Z,47.05
2022-09-18T00:23:14.589Z,43.18
2022-09-18T00:24:14.585Z,44.31
2022-09-18T00:25:14.604Z,44.15
2022-09-18T00:26:14.544Z,43.51
2022-09-18T00:27:14.535Z,45.44
2022-09-18T00:28:14.536Z,43.51
2022-09-18T00:29:14.513Z,43.67
2022-09-18T00:30:14.521Z,43.67
2022-09-18T00:31:14.547Z,42.54
2022-09-18T00:32:14.453Z,47.05
2022-09-18T00:33:14.460Z,43.34
2022-09-18T00:34:14.476Z,43.02
2022-09-18T00:35:14.465Z,46.08
2022-09-18T00:36:14.407Z,45.44
2022-09-18T00:37:14.394Z,46.08
2022-09-18T00:38:14.444Z,44.63
2022-09-18T00:39:14.365Z,44.63
2022-09-18T00:40:14.459Z,44.47
2022-09-18T00:41:14.355Z,43.34
2022-09-18T00:42:14.340Z,44.63
2022-09-18T00:43:14.316Z,46.08
2022-09-18T00:44:14.294Z,42.22
2022-09-18T00:45:14.313Z,42.86
2022-09-18T00:46:14.321Z,42.22
2022-09-18T00:47:14.295Z,44.63
2022-09-18T00:48:14.235Z,42.86
2022-09-18T00:49:14.231Z,41.57
2022-09-18T00:50:14.236Z,44.63
2022-09-18T00:51:14.211Z,41.73
2022-09-18T00:52:14.210Z,44.47
2022-09-18T00:53:14.181Z,43.02
2022-09-18T00:54:14.155Z,42.70
2022-09-18T00:55:14.186Z,42.22
2022-09-18T00:56:14.137Z,42.22
2022-09-18T00:57:14.127Z,42.86
2022-09-18T00:58:14.105Z,43.02
2022-09-18T00:59:14.097Z,42.54
2022-09-18T01:00:14.099Z,43.02
2022-09-18T01:01:14.102Z,42.22
2022-09-18T01:02:14.104Z,43.99
2022-09-18T01:03:14.036Z,43.34
2022-09-18T01:04:14.028Z,41.73
2022-09-18T01:05:14.074Z,46.08
2022-09-18T01:06:13.988Z,43.18
2022-09-18T01:07:13.986Z,43.34
2022-09-18T01:08:13.967Z,41.41
2022-09-18T01:09:25.209Z,42.86
2022-09-18T01:10:14.958Z,44.31
2022-09-18T01:11:13.946Z,45.60
2022-09-18T01:12:13.919Z,42.22
2022-09-18T01:13:13.928Z,45.28
2022-09-18T01:14:13.889Z,42.86
2022-09-18T01:15:13.899Z,43.99
2022-09-18T01:16:14.023Z,42.54
2022-09-18T01:17:13.849Z,42.70
2022-09-18T01:18:13.832Z,44.31
2022-09-18T01:19:13.819Z,44.31
2022-09-18T01:20:13.828Z,43.34
2022-09-18T01:21:13.801Z,43.67
2022-09-18T01:22:13.776Z,43.02
2022-09-18T01:23:13.767Z,42.54
2022-09-18T01:24:13.749Z,45.76
2022-09-18T01:25:13.760Z,43.34
2022-09-18T01:26:13.720Z,43.02
2022-09-18T01:27:13.760Z,45.76
2022-09-18T01:28:13.690Z,43.34
2022-09-18T01:29:13.703Z,43.34
2022-09-18T01:30:13.712Z,44.63
2022-09-18T01:31:13.734Z,42.86
2022-09-18T01:32:13.641Z,43.83
2022-09-18T01:33:13.622Z,41.41
2022-09-18T01:34:13.638Z,41.89
2022-09-18T01:35:36.715Z,43.51
2022-09-18T01:36:14.582Z,42.22
2022-09-18T01:37:13.574Z,42.54
2022-09-18T01:38:13.551Z,43.02
2022-09-18T01:39:13.541Z,45.44
2022-09-18T01:40:13.650Z,43.99
2022-09-18T01:41:13.523Z,45.28
2022-09-18T01:42:13.530Z,43.51
2022-09-18T01:43:13.482Z,41.89
2022-09-18T01:44:13.475Z,45.60
2022-09-18T01:45:13.482Z,43.02
2022-09-18T01:46:13.503Z,44.31
2022-09-18T01:47:13.425Z,42.54
2022-09-18T01:48:13.425Z,41.09
2022-09-18T01:49:13.407Z,43.18
2022-09-18T01:50:13.437Z,42.22
2022-09-18T01:51:13.374Z,42.86
2022-09-18T01:52:13.362Z,43.67
2022-09-18T01:53:13.351Z,41.73
2022-09-18T01:54:13.334Z,43.02
2022-09-18T01:55:13.343Z,42.22
2022-09-18T01:56:13.304Z,42.70
2022-09-18T01:57:13.303Z,42.70
2022-09-18T01:58:13.281Z,43.83
2022-09-18T01:59:13.265Z,42.22
2022-09-18T02:00:13.302Z,43.67
2022-09-18T02:01:13.370Z,46.08
2022-09-18T02:02:13.533Z,42.22
2022-09-18T02:03:13.232Z,43.34
2022-09-18T02:04:13.196Z,43.67
2022-09-18T02:05:13.215Z,42.22
2022-09-18T02:06:13.194Z,48.82
2022-09-18T02:07:13.153Z,47.37
2022-09-18T02:08:13.150Z,47.37
2022-09-18T02:09:13.126Z,44.96
2022-09-18T02:10:13.142Z,42.86
2022-09-18T02:11:13.121Z,42.22
2022-09-18T02:12:13.096Z,41.89
2022-09-18T02:13:13.094Z,44.47
2022-09-18T02:14:13.057Z,44.63
2022-09-18T02:15:13.066Z,44.63
2022-09-18T02:16:13.095Z,43.83
2022-09-18T02:17:13.016Z,44.96
2022-09-18T02:18:13.006Z,43.02
2022-09-18T02:19:13.006Z,42.86
2022-09-18T02:20:13.004Z,44.15
2022-09-18T02:21:12.989Z,45.76
2022-09-18T02:22:12.950Z,46.89
2022-09-18T02:23:12.947Z,46.08
2022-09-18T02:24:12.927Z,44.63
2022-09-18T02:25:12.929Z,45.28
2022-09-18T02:26:12.889Z,45.60
2022-09-18T02:27:12.878Z,44.79
2022-09-18T02:28:12.868Z,43.51
2022-09-18T02:29:12.871Z,43.67
2022-09-18T02:30:12.858Z,43.51
2022-09-18T02:31:12.915Z,44.31
2022-09-18T02:32:12.809Z,43.99
2022-09-18T02:33:12.799Z,42.22
2022-09-18T02:34:12.792Z,43.67
2022-09-18T02:35:12.789Z,43.02
2022-09-18T02:36:12.770Z,43.02
2022-09-18T02:37:12.738Z,43.51
2022-09-18T02:38:12.732Z,43.83
2022-09-18T02:39:12.711Z,43.83
2022-09-18T02:40:12.786Z,44.79
2022-09-18T02:41:12.691Z,45.60
2022-09-18T02:42:12.680Z,44.63
2022-09-18T02:43:12.657Z,46.08
2022-09-18T02:44:12.652Z,45.12
2022-09-18T02:45:12.841Z,46.89
2022-09-18T02:46:12.668Z,43.34
2022-09-18T02:47:12.601Z,43.34
2022-09-18T02:48:12.595Z,44.79
2022-09-18T02:49:12.570Z,43.67
2022-09-18T02:50:12.590Z,42.86
2022-09-18T02:51:12.551Z,46.08
2022-09-18T02:52:12.543Z,44.63
2022-09-18T02:53:12.520Z,43.99
2022-09-18T02:54:12.511Z,47.86
2022-09-18T02:55:12.534Z,45.44
2022-09-18T02:56:12.494Z,42.54
2022-09-18T02:57:12.462Z,44.63
2022-09-18T02:58:12.451Z,48.18
2022-09-18T02:59:12.441Z,45.44
2022-09-18T03:00:12.454Z,41.73
2022-09-18T03:01:12.458Z,46.73
2022-09-18T03:02:12.477Z,42.70
2022-09-18T03:03:12.384Z,43.99
2022-09-18T03:04:12.372Z,44.31
2022-09-18T03:05:12.380Z,43.51
2022-09-18T03:06:12.355Z,44.63
2022-09-18T03:07:12.334Z,45.76
2022-09-18T03:08:12.322Z,43.99
2022-09-18T03:09:12.330Z,42.54
2022-09-18T03:10:12.283Z,43.34
2022-09-18T03:11:12.293Z,45.92
2022-09-18T03:12:12.263Z,46.25
2022-09-18T03:13:12.244Z,44.31
2022-09-18T03:14:12.265Z,49.95
2022-09-18T03:15:12.224Z,43.99
2022-09-18T03:16:12.268Z,43.99
2022-09-18T03:17:12.185Z,45.12
2022-09-18T03:18:12.186Z,43.02
2022-09-18T03:19:12.189Z,45.12
2022-09-18T03:20:12.155Z,43.18
2022-09-18T03:21:12.140Z,43.67
2022-09-18T03:22:12.128Z,43.18
2022-09-18T03:23:12.124Z,43.99
2022-09-18T03:24:12.125Z,44.96
2022-09-18T03:25:12.085Z,45.28
2022-09-18T03:26:12.075Z,49.79
2022-09-18T03:27:12.047Z,47.86
2022-09-18T03:28:12.049Z,46.89
2022-09-18T03:29:12.055Z,44.63
2022-09-18T03:30:12.017Z,45.28
2022-09-18T03:31:12.102Z,44.63
2022-09-18T03:32:11.991Z,43.83
2022-09-18T03:33:11.968Z,44.63
2022-09-18T03:34:12.007Z,43.99
2022-09-18T03:35:11.988Z,43.99
2022-09-18T03:36:11.936Z,47.05
2022-09-18T03:37:11.954Z,46.08
2022-09-18T03:38:11.906Z,48.02
2022-09-18T03:39:11.917Z,46.08
2022-09-18T03:40:11.936Z,45.28
2022-09-18T03:41:11.858Z,45.28
2022-09-18T03:42:11.847Z,46.57
2022-09-18T03:43:11.837Z,45.28
2022-09-18T03:44:11.849Z,47.05
2022-09-18T03:45:11.814Z,49.15
2022-09-18T03:46:11.852Z,47.05
2022-09-18T03:47:11.794Z,45.28
2022-09-18T03:48:11.769Z,46.25
2022-09-18T03:49:11.770Z,47.05
2022-09-18T03:50:12.200Z,47.05
2022-09-18T03:51:11.730Z,47.53
2022-09-18T03:52:11.711Z,47.37
2022-09-18T03:53:11.689Z,42.86
2022-09-18T03:54:11.720Z,43.51
2022-09-18T03:55:11.669Z,46.25
2022-09-18T03:56:11.660Z,44.63
2022-09-18T03:57:11.643Z,43.18
2022-09-18T03:58:11.657Z,44.79
2022-09-18T03:59:11.648Z,42.22
2022-09-18T04:00:11.600Z,43.34
2022-09-18T04:01:11.581Z,44.47
2022-09-18T04:02:11.639Z,45.12
2022-09-18T04:03:11.647Z,45.44
2022-09-18T04:04:11.580Z,43.51
2022-09-18T04:05:11.531Z,42.86
2022-09-18T04:06:11.531Z,63.65
2022-09-18T04:07:11.527Z,49.15
2022-09-18T04:08:11.492Z,64.29
2022-09-18T04:09:11.505Z,47.86
2022-09-18T04:10:11.471Z,59.30
2022-09-18T04:11:11.472Z,67.03
2022-09-18T04:12:11.444Z,51.88
2022-09-18T04:29:43.827Z,50.11
2022-09-18T04:30:43.782Z,51.08
2022-09-18T04:31:43.821Z,66.23
2022-09-18T04:32:43.750Z,48.02
2022-09-18T04:33:43.748Z,56.24
2022-09-18T04:34:43.751Z,48.66
2022-09-18T04:35:43.710Z,59.46
2022-09-18T04:36:43.702Z,58.49
2022-09-18T04:37:43.689Z,52.85
2022-09-18T04:44:08.178Z,46.57
2022-09-18T04:45:14.894Z,61.87
2022-09-18T04:46:07.742Z,52.05
2022-09-18T04:47:07.646Z,45.44
2022-09-18T04:48:07.649Z,52.21
2022-09-18T04:49:07.643Z,58.81
2022-09-18T04:50:07.637Z,44.15
2022-09-18T04:51:07.605Z,57.04
2022-09-18T04:52:07.598Z,59.78
2022-09-18T04:55:16.389Z,42.70
2022-09-18T04:56:16.330Z,47.70
2022-09-18T04:58:34.603Z,48.66
2022-09-18T04:59:44.326Z,61.39
2022-09-18T05:01:51.924Z,47.53
2022-09-18T05:04:20.997Z,65.74
2022-09-18T05:06:58.391Z,62.20
2022-09-18T05:07:58.353Z,46.57
2022-09-18T05:09:18.672Z,56.88
2022-09-18T05:09:58.350Z,41.89
2022-09-18T05:12:27.675Z,55.43
2022-09-18T05:15:43.672Z,43.18
2022-09-18T05:16:43.597Z,45.28
2022-09-18T05:17:43.574Z,43.83
2022-09-18T05:18:43.573Z,60.10
2022-09-18T05:21:31.036Z,44.63
2022-09-18T05:22:31.012Z,43.83
2022-09-18T05:23:31.057Z,60.59
2022-09-18T05:24:30.995Z,44.79
2022-09-18T05:27:04.261Z,45.44
2022-09-18T05:29:21.537Z,67.35
2022-09-18T05:30:21.541Z,52.85
2022-09-18T05:31:51.325Z,43.18
2022-09-18T05:32:21.496Z,61.55
2022-09-18T05:33:21.496Z,67.35
2022-09-18T05:34:36.359Z,53.33
2022-09-18T05:39:20.749Z,44.63
2022-09-18T05:41:38.707Z,44.31
2022-09-18T05:45:20.590Z,58.97
2022-09-18T05:47:58.457Z,55.43
2022-09-18T05:49:10.116Z,55.27
2022-09-18T05:49:58.466Z,49.95
2022-09-18T05:52:15.763Z,57.04
2022-09-18T05:53:24.785Z,67.03
2022-09-18T05:55:12.562Z,57.04
2022-09-18T05:55:20.231Z,66.87
2022-09-18T05:59:14.318Z,54.62
2022-09-18T07:08:26.920Z,48.50
2022-09-18T08:30:51.890Z,66.87
2022-09-18T08:31:50.687Z,64.78
2022-09-18T08:32:50.680Z,63.00
2022-09-18T08:33:55.902Z,61.71
2022-09-18T08:34:59.203Z,62.36
2022-09-18T08:35:50.607Z,59.46
2022-09-18T08:36:50.591Z,63.97
2022-09-18T08:37:50.592Z,66.06
2022-09-18T08:38:50.592Z,65.90
2022-09-18T08:39:50.554Z,54.30
2022-09-18T08:40:50.546Z,54.79
2022-09-18T08:41:50.525Z,57.20
2022-09-18T08:42:50.505Z,48.66
2022-09-18T08:43:50.515Z,60.10
2022-09-18T08:44:50.509Z,52.21
2022-09-18T08:45:50.466Z,48.34
2022-09-18T08:46:50.460Z,48.34
2022-09-18T08:47:50.448Z,49.79
2022-09-18T08:48:50.547Z,52.21
2022-09-18T08:49:50.438Z,53.01
2022-09-18T08:50:50.406Z,55.27
2022-09-18T08:51:50.395Z,57.20
2022-09-18T08:52:50.366Z,51.24
2022-09-18T08:53:50.396Z,64.78
2022-09-18T08:54:50.337Z,48.98
2022-09-18T08:55:50.336Z,48.34
2022-09-18T08:56:50.317Z,51.24
2022-09-18T08:57:50.318Z,47.37
2022-09-18T08:58:50.306Z,48.02
2022-09-18T08:59:50.278Z,49.15
2022-09-18T09:00:50.306Z,64.94
2022-09-18T09:01:50.292Z,56.07
2022-09-18T09:02:50.240Z,48.66
2022-09-18T09:03:50.365Z,47.05
2022-09-18T09:04:50.209Z,56.40
2022-09-18T09:05:50.208Z,49.31
2022-09-18T09:06:50.185Z,48.34
2022-09-18T09:07:55.612Z,48.34
2022-09-18T09:32:37.759Z,50.76
2022-09-18T09:33:44.806Z,54.95
2022-09-18T09:34:37.726Z,52.37
2022-09-18T09:35:37.709Z,62.20
2022-09-18T09:36:37.680Z,57.36
2022-09-18T09:37:37.650Z,51.56
2022-09-18T09:38:37.686Z,50.76
2022-09-18T09:39:37.619Z,49.15
2022-09-18T09:40:37.704Z,49.47
2022-09-18T09:41:37.592Z,45.60
2022-09-18T09:42:37.593Z,47.05
2022-09-18T09:43:37.590Z,47.86
2022-09-18T09:44:37.571Z,48.18
2022-09-18T09:45:37.541Z,48.02
2022-09-18T09:46:37.580Z,47.70
2022-09-18T09:47:37.511Z,48.50
2022-09-18T09:48:37.539Z,46.25
2022-09-18T09:49:37.490Z,49.79
2022-09-18T09:50:37.492Z,48.50
2022-09-18T09:51:37.473Z,61.71
2022-09-18T09:52:37.452Z,53.98
2022-09-18T09:53:37.432Z,69.93
2022-09-18T09:54:37.454Z,51.08
2022-09-18T09:55:37.406Z,47.21
2022-09-18T09:56:37.394Z,46.25
2022-09-18T09:57:37.381Z,53.50
2022-09-18T09:58:37.382Z,56.56
2022-09-18T09:59:37.390Z,46.73
2022-09-18T10:00:37.394Z,57.85
2022-09-18T10:01:37.349Z,67.68
2022-09-18T10:02:37.332Z,54.30
2022-09-18T10:03:37.294Z,49.79
2022-09-18T10:04:37.324Z,47.05
2022-09-18T10:05:37.268Z,48.02
2022-09-18T10:06:37.263Z,48.18
2022-09-18T10:07:37.256Z,47.53
2022-09-18T10:08:37.235Z,47.21
2022-09-18T10:09:37.390Z,50.27
2022-09-18T10:10:37.225Z,48.02
2022-09-18T10:11:37.187Z,47.21
2022-09-18T10:12:37.175Z,56.24
2022-09-18T10:13:37.155Z,56.56
2022-09-18T10:14:37.189Z,49.63
2022-09-18T10:15:37.142Z,48.82
2022-09-18T10:16:37.217Z,50.60
2022-09-18T10:17:37.114Z,48.66
2022-09-18T10:18:37.106Z,49.47
2022-09-18T10:19:37.107Z,48.02
2022-09-18T10:20:37.069Z,48.34
2022-09-18T10:21:37.048Z,50.11
2022-09-18T10:22:37.045Z,59.30
2022-09-18T10:23:37.058Z,52.85
2022-09-18T10:24:37.040Z,54.79
2022-09-18T10:25:36.996Z,62.36
2022-09-18T10:26:36.987Z,49.63
2022-09-18T10:27:36.967Z,48.66
2022-09-18T10:28:36.995Z,53.17
2022-09-18T10:29:36.956Z,51.88
2022-09-18T10:30:36.929Z,48.34
2022-09-18T10:31:36.977Z,48.66
2022-09-18T10:32:36.909Z,56.72
2022-09-18T10:33:36.917Z,54.95
2022-09-18T10:34:36.883Z,51.88
2022-09-18T10:35:36.861Z,51.56
2022-09-18T10:36:37.081Z,50.60
2022-09-18T10:37:36.831Z,48.18
2022-09-18T10:38:36.856Z,52.05
2022-09-18T10:39:36.815Z,55.59
2022-09-18T10:40:36.881Z,49.31
2022-09-18T10:41:36.797Z,52.85
2022-09-18T10:42:36.772Z,58.01
2022-09-18T10:43:36.771Z,50.76
2022-09-18T10:44:36.756Z,51.40
2022-09-18T10:45:36.723Z,50.60
2022-09-18T10:46:36.793Z,53.82
2022-09-18T10:47:36.692Z,56.88
2022-09-18T10:48:36.713Z,50.27
2022-09-18T10:49:36.675Z,52.37
2022-09-18T10:50:36.663Z,50.76
2022-09-18T10:51:36.644Z,49.47
2022-09-18T10:52:36.665Z,61.07
2022-09-18T10:53:36.613Z,50.76
2022-09-18T10:54:36.622Z,52.69
2022-09-18T10:55:36.592Z,57.52
2022-09-18T10:56:36.576Z,57.85
2022-09-18T10:57:36.595Z,50.92
2022-09-18T10:58:36.553Z,60.75
2022-09-18T10:59:36.534Z,48.18
2022-09-18T11:00:36.710Z,52.05
2022-09-18T11:01:36.579Z,54.79
2022-09-18T11:02:36.571Z,50.76
2022-09-18T11:03:36.475Z,48.98
2022-09-18T11:04:36.465Z,48.34
2022-09-18T11:05:36.454Z,47.70
2022-09-18T11:06:36.446Z,49.15
2022-09-18T11:07:36.456Z,52.21
2022-09-18T11:08:36.418Z,49.15
2022-09-18T11:09:36.414Z,51.08
2022-09-18T11:10:36.386Z,49.47
2022-09-18T11:11:36.376Z,54.14
2022-09-18T11:12:36.365Z,48.98
2022-09-18T11:13:36.398Z,53.82
2022-09-18T11:14:36.338Z,49.95
2022-09-18T11:15:36.997Z,50.76
2022-09-18T11:16:36.389Z,50.11
2022-09-18T11:17:36.298Z,63.16
2022-09-18T11:18:36.310Z,57.20
2022-09-18T11:19:36.259Z,49.79
2022-09-18T11:20:36.248Z,51.88
2022-09-18T11:21:36.230Z,52.05
2022-09-18T11:22:36.257Z,50.43
2022-09-18T11:23:36.243Z,51.72
2022-09-18T11:24:36.199Z,57.85
2022-09-18T11:25:36.180Z,49.47
2022-09-18T11:26:36.178Z,58.49
2022-09-18T11:27:36.157Z,52.69
2022-09-18T11:28:36.170Z,58.49
2022-09-18T11:29:36.120Z,54.79
2022-09-18T11:30:36.141Z,55.59
2022-09-18T11:31:36.118Z,51.72
2022-09-18T11:32:36.101Z,50.60
2022-09-18T11:33:36.101Z,49.63
2022-09-18T11:34:36.064Z,48.18
2022-09-18T11:35:36.042Z,64.13
2022-09-18T11:36:36.040Z,56.40
2022-09-18T11:37:36.012Z,60.91
2022-09-18T11:38:36.042Z,53.01
2022-09-18T11:39:35.993Z,51.40
2022-09-18T11:40:36.041Z,51.24
2022-09-18T11:41:35.965Z,66.55
2022-09-18T11:42:35.955Z,50.27
2022-09-18T11:43:35.960Z,49.31
2022-09-18T11:44:35.943Z,64.78
2022-09-18T11:45:35.911Z,51.56
2022-09-18T11:46:35.939Z,49.63
2022-09-18T11:47:35.885Z,66.23
2022-09-18T11:48:35.915Z,51.08
2022-09-18T11:49:35.856Z,60.75
2022-09-18T11:50:35.845Z,54.62
2022-09-18T11:51:35.832Z,69.61
2022-09-18T11:52:35.832Z,64.29
2022-09-18T11:53:35.830Z,57.04
2022-09-18T11:54:35.795Z,67.51
2022-09-18T11:55:35.774Z,54.46
2022-09-18T11:56:35.773Z,60.59
2022-09-18T11:57:35.745Z,53.98
2022-09-18T11:58:35.765Z,63.16
2022-09-18T11:59:35.719Z,68.64
2022-09-18T12:00:35.720Z,69.61
2022-09-18T12:01:35.766Z,59.94
2022-09-18T12:02:35.765Z,58.65
2022-09-18T12:03:35.699Z,60.75
2022-09-18T12:04:35.665Z,63.81
2022-09-18T12:05:35.638Z,63.81
2022-09-18T12:06:35.629Z,63.00
2022-09-18T12:07:48.931Z,59.94
2022-09-18T12:08:34.290Z,61.87
2022-09-18T12:09:34.243Z,62.04
2022-09-18T12:10:34.218Z,60.75
2022-09-18T12:11:34.207Z,61.07
2022-09-18T12:12:34.177Z,61.23
2022-09-18T12:13:34.207Z,57.52
2022-09-18T12:14:34.156Z,56.88
2022-09-18T12:15:34.146Z,61.55
2022-09-18T12:16:34.200Z,59.14
2022-09-18T12:17:34.123Z,55.43
2022-09-18T12:18:34.126Z,55.59
2022-09-18T12:19:34.084Z,53.82
2022-09-18T12:20:34.070Z,53.98
2022-09-18T12:21:34.094Z,54.95
2022-09-18T12:22:34.038Z,51.72
2022-09-18T12:23:34.061Z,52.85
2022-09-18T12:24:34.009Z,56.24
2022-09-18T12:25:34.003Z,52.53
2022-09-18T12:26:33.979Z,59.30
2022-09-18T12:27:33.978Z,52.69
2022-09-18T12:28:33.984Z,53.98
2022-09-18T12:29:33.946Z,53.17
2022-09-18T12:30:33.924Z,51.88
2022-09-18T12:31:33.967Z,52.37
2022-09-18T12:32:33.901Z,54.62
2022-09-18T12:33:34.460Z,70.25
2022-09-18T12:34:33.864Z,53.17
2022-09-18T12:35:33.853Z,58.97
2022-09-18T12:36:33.853Z,63.16
2022-09-18T12:37:33.830Z,51.56
2022-09-18T12:38:33.831Z,56.72
2022-09-18T12:39:34.462Z,60.59
2022-09-18T12:40:34.505Z,55.59
2022-09-18T12:41:34.440Z,53.17
2022-09-18T12:42:34.420Z,52.85
2022-09-18T12:43:34.429Z,56.56
2022-09-18T12:44:34.390Z,54.14
2022-09-18T12:45:34.419Z,53.50
2022-09-18T12:46:34.365Z,55.11
2022-09-18T12:47:34.388Z,58.97
2022-09-18T12:48:34.343Z,54.14
2022-09-18T12:49:34.316Z,55.27
2022-09-18T12:50:34.302Z,69.13
2022-09-18T12:51:34.312Z,54.95
2022-09-18T12:52:34.274Z,54.95
2022-09-18T12:53:34.292Z,58.33
2022-09-18T12:54:34.249Z,55.27
2022-09-18T12:55:34.232Z,55.27
2022-09-18T12:56:34.227Z,64.29
2022-09-18T12:57:36.069Z,63.97
2022-09-18T12:58:34.219Z,65.74
2022-09-18T12:59:34.180Z,63.81
2022-09-18T13:00:34.394Z,62.20
2022-09-18T13:01:34.147Z,54.30
2022-09-18T13:02:34.191Z,53.82
2022-09-18T13:03:34.212Z,52.05
2022-09-18T13:04:34.104Z,51.40
2022-09-18T13:05:34.103Z,54.30
2022-09-18T13:06:34.075Z,53.17
2022-09-18T13:07:34.081Z,53.98
2022-09-18T13:08:34.100Z,54.79
2022-09-18T13:09:34.040Z,55.59
2022-09-18T13:10:34.012Z,53.82
2022-09-18T13:11:34.001Z,55.27
2022-09-18T13:12:33.988Z,54.30
2022-09-18T13:13:34.000Z,54.46
2022-09-18T13:14:33.959Z,64.78
2022-09-18T13:15:33.966Z,59.46
2022-09-18T13:16:34.721Z,53.98
2022-09-18T13:17:34.657Z,53.82
2022-09-18T13:18:34.658Z,52.85
2022-09-18T13:19:34.618Z,55.75
2022-09-18T13:20:34.612Z,51.56
2022-09-18T13:21:34.603Z,61.07
2022-09-18T13:22:34.596Z,54.95
2022-09-18T13:23:34.565Z,56.72
2022-09-18T13:24:34.553Z,57.69
2022-09-18T13:25:34.534Z,57.69
2022-09-18T13:26:34.525Z,57.52
2022-09-18T13:27:34.547Z,61.39
2022-09-18T13:28:34.492Z,54.30
2022-09-18T13:29:34.493Z,53.17
2022-09-18T13:30:34.473Z,64.94
2022-09-18T13:31:34.513Z,61.39
2022-09-18T13:32:37.542Z,58.49
2022-09-18T13:33:34.420Z,61.71
2022-09-18T13:34:34.406Z,57.04
2022-09-18T13:35:34.406Z,55.11
2022-09-18T13:36:34.378Z,63.81
2022-09-18T13:37:34.398Z,55.43
2022-09-18T13:38:34.347Z,53.82
2022-09-18T13:39:50.559Z,54.30
2022-09-18T13:40:35.393Z,51.08
2022-09-18T13:41:34.315Z,50.92
2022-09-18T13:42:34.314Z,63.49
2022-09-18T13:43:34.284Z,55.91
2022-09-18T13:44:34.265Z,62.52
2022-09-18T13:45:34.253Z,53.01
2022-09-18T13:46:34.255Z,63.81
2022-09-18T13:47:34.266Z,53.33
2022-09-18T13:48:34.203Z,61.07
2022-09-18T13:49:34.197Z,62.84
2022-09-18T13:50:34.180Z,54.95
2022-09-18T13:51:34.170Z,59.94
2022-09-18T13:52:34.189Z,53.98
2022-09-18T13:53:34.138Z,53.17
2022-09-18T13:54:34.118Z,63.97
2022-09-18T13:55:34.111Z,52.85
2022-09-18T13:56:34.089Z,54.62
2022-09-18T13:57:34.108Z,53.98
2022-09-18T13:58:34.069Z,54.62
2022-09-18T13:59:34.058Z,53.66
2022-09-18T14:00:34.083Z,54.62
2022-09-18T14:01:34.089Z,54.95
2022-09-18T14:02:34.017Z,53.82
2022-09-18T14:03:34.025Z,68.16
2022-09-18T14:04:33.977Z,62.36
2022-09-18T14:05:33.975Z,54.14
2022-09-18T14:06:33.987Z,53.82
2022-09-18T14:07:33.946Z,54.95
2022-09-18T14:08:33.924Z,55.27
2022-09-18T14:09:33.916Z,51.56
2022-09-18T14:10:33.896Z,53.01
2022-09-18T14:11:33.926Z,52.53
2022-09-18T14:12:33.876Z,51.88
2022-09-18T14:13:33.985Z,53.50
2022-09-18T14:14:33.844Z,53.82
2022-09-18T14:15:33.839Z,64.94
2022-09-18T14:16:33.848Z,54.62
2022-09-18T14:17:33.805Z,52.37
2022-09-18T14:18:33.795Z,67.84
2022-09-18T14:19:33.779Z,56.56
2022-09-18T14:20:33.775Z,53.50
2022-09-18T14:21:33.795Z,53.33
2022-09-18T14:22:33.734Z,52.21
2022-09-18T14:23:33.725Z,52.85
2022-09-18T14:24:36.201Z,56.88
2022-09-18T14:25:33.707Z,64.29
2022-09-18T14:26:33.704Z,56.07
2022-09-18T14:27:33.676Z,53.01
2022-09-18T14:28:33.651Z,51.72
2022-09-18T14:29:33.646Z,59.94
2022-09-18T14:30:33.624Z,61.23
2022-09-18T14:31:33.713Z,51.88
2022-09-18T14:32:33.594Z,51.40
2022-09-18T14:33:33.586Z,64.29
2022-09-18T14:34:33.574Z,52.21
2022-09-18T14:35:33.558Z,50.60
2022-09-18T14:36:33.576Z,62.84
2022-09-18T14:37:33.526Z,56.56
2022-09-18T14:38:33.518Z,52.37
2022-09-18T14:39:33.508Z,61.71
2022-09-18T14:40:33.573Z,51.72
2022-09-18T14:41:33.479Z,50.43
2022-09-18T14:42:33.548Z,48.82
2022-09-18T14:43:33.453Z,51.40
2022-09-18T14:44:33.440Z,51.72
2022-09-18T14:45:33.455Z,49.31
2022-09-18T14:46:33.411Z,51.40
2022-09-18T14:47:33.432Z,48.98
2022-09-18T14:48:33.382Z,52.37
2022-09-18T14:49:33.381Z,51.56
2022-09-18T14:50:33.353Z,64.94
2022-09-18T14:51:49.439Z,51.08
2022-09-18T14:52:34.334Z,51.88
2022-09-18T14:53:33.335Z,51.08
2022-09-18T14:54:33.305Z,51.40
2022-09-18T14:55:33.298Z,55.75
2022-09-18T14:56:33.294Z,52.85
2022-09-18T14:57:33.286Z,52.21
2022-09-18T14:58:33.248Z,51.08
2022-09-18T14:59:33.246Z,58.81
2022-09-18T15:00:33.249Z,52.05
2022-09-18T15:01:33.226Z,51.72
2022-09-18T15:02:33.227Z,52.05
2022-09-18T15:03:33.187Z,51.40
2022-09-18T15:04:33.346Z,50.76
2022-09-18T15:05:33.168Z,53.33
2022-09-18T15:06:33.145Z,53.33
2022-09-18T15:07:33.159Z,55.75
2022-09-18T15:08:33.148Z,53.33
2022-09-18T15:09:33.110Z,50.11
2022-09-18T15:10:33.092Z,49.95
2022-09-18T15:11:46.913Z,49.15
2022-09-18T15:12:34.082Z,60.75
2022-09-18T15:13:33.052Z,52.21
2022-09-18T15:14:37.316Z,50.11
2022-09-18T15:15:34.033Z,50.76
2022-09-18T15:16:33.056Z,49.95
2022-09-18T15:17:33.037Z,49.95
2022-09-18T15:18:32.983Z,49.47
2022-09-18T15:19:33.012Z,50.60
2022-09-18T15:20:32.957Z,59.94
2022-09-18T15:21:33.537Z,54.95
2022-09-18T15:22:32.957Z,53.82
2022-09-18T15:23:32.930Z,55.59
2022-09-18T15:24:32.932Z,59.62
2022-09-18T15:25:32.903Z,53.82
2022-09-18T15:26:32.933Z,69.29
2022-09-18T15:27:32.988Z,52.21
2022-09-18T15:28:32.917Z,64.94
2022-09-18T15:29:33.012Z,55.91
2022-09-18T15:30:32.883Z,53.01
2022-09-18T15:31:32.926Z,51.88
2022-09-18T15:32:36.407Z,55.11
2022-09-18T15:33:32.807Z,53.82
2022-09-18T15:34:32.818Z,52.21
2022-09-18T15:35:32.780Z,52.69
2022-09-18T15:36:32.759Z,52.85
2022-09-18T15:37:32.778Z,53.17
2022-09-18T15:38:32.742Z,54.30
2022-09-18T15:39:32.722Z,56.56
2022-09-18T15:40:32.798Z,56.56
2022-09-18T15:41:32.693Z,56.56
2022-09-18T15:42:32.704Z,57.04
2022-09-18T15:43:32.674Z,57.69
2022-09-18T15:44:40.198Z,55.91
2022-09-18T15:45:32.655Z,53.98
2022-09-18T15:46:32.679Z,57.85
2022-09-18T15:47:32.647Z,54.30
2022-09-18T15:48:33.901Z,58.97
2022-09-18T15:49:32.603Z,57.69
2022-09-18T15:50:32.586Z,54.14
2022-09-18T15:51:32.578Z,58.65
2022-09-18T15:52:32.575Z,54.95
2022-09-18T15:53:32.544Z,57.36
2022-09-18T15:54:32.521Z,58.17
2022-09-18T15:55:32.514Z,55.91
2022-09-18T15:56:32.494Z,69.45
2022-09-18T15:57:32.530Z,57.36
2022-09-18T15:58:32.510Z,59.46
2022-09-18T15:59:32.453Z,61.23
2022-09-18T16:00:32.475Z,59.78
2022-09-18T16:01:32.433Z,57.69
2022-09-18T16:02:32.433Z,59.14
2022-09-18T16:03:32.411Z,58.01
2022-09-18T16:04:32.402Z,58.97
2022-09-18T16:05:32.376Z,77.02
2022-09-18T16:06:32.355Z,59.62
2022-09-18T16:07:32.374Z,58.97
2022-09-18T16:08:32.331Z,57.20
2022-09-18T16:09:33.589Z,56.24
2022-09-18T16:10:32.300Z,57.04
2022-09-18T16:11:32.294Z,56.40
2022-09-18T16:12:32.322Z,57.20
2022-09-18T16:13:32.264Z,58.17
2022-09-18T16:14:32.333Z,57.69
2022-09-18T16:15:32.233Z,57.20
2022-09-18T16:16:32.264Z,56.24
2022-09-18T16:17:36.484Z,57.04
2022-09-18T16:18:32.194Z,55.91
2022-09-18T16:19:32.303Z,55.75
2022-09-18T16:20:32.162Z,55.75
2022-09-18T16:21:32.152Z,56.56
2022-09-18T16:22:32.162Z,56.07
2022-09-18T16:23:32.140Z,55.91
2022-09-18T16:24:32.112Z,62.84
2022-09-18T16:25:32.101Z,59.14
2022-09-18T16:26:32.104Z,57.36
2022-09-18T16:27:32.101Z,58.49
2022-09-18T16:28:32.087Z,57.85
2022-09-18T16:29:32.043Z,58.49
2022-09-18T16:30:32.033Z,57.52
2022-09-18T16:31:32.073Z,58.17
2022-09-18T16:32:32.049Z,57.36
2022-09-18T16:33:32.025Z,57.85
2022-09-18T16:34:31.994Z,58.17
2022-09-18T16:35:31.964Z,56.88
2022-09-18T16:36:31.979Z,56.07
2022-09-18T16:37:31.965Z,56.40